Time;durP1;ratioP1;P1;durP2;ratioP2;P2;SDS_P1;SDS_P2;PMS_P1;PMS_P2;Temp;Humidity;BMP_temperature;BMP_pressure;BME280_temperature;BME280_humidity;BME280_pressure;Samples;Min_cycle;Max_cycle;Signal;HPM_P1;HPM_P2
2022/09/06 00:01:57;;;;;;;8.20;4.70;;;21.40;90.70;;;;;;5006957;28;20405;-61
2022/09/06 00:04:23;;;;;;;7.32;4.75;;;21.40;90.80;;;;;;5006893;28;20435;-61
2022/09/06 00:06:48;;;;;;;7.75;4.47;;;21.30;90.80;;;;;;5026711;28;20029;-61
2022/09/06 00:09:14;;;;;;;8.35;5.20;;;21.30;90.80;;;;;;4996236;28;20485;-61
2022/09/06 00:11:40;;;;;;;7.50;4.85;;;21.30;90.90;;;;;;5009330;28;20041;-61
2022/09/06 00:14:05;;;;;;;8.20;4.10;;;21.20;91.00;;;;;;5005445;28;20512;-61
2022/09/06 00:16:31;;;;;;;5.28;3.67;;;21.20;91.00;;;;;;5019052;28;20033;-61
2022/09/06 00:18:57;;;;;;;7.07;4.93;;;21.20;91.00;;;;;;5021828;28;20037;-60
2022/09/06 00:21:25;;;;;;;5.40;4.13;;;21.20;91.10;;;;;;5023073;28;20119;-61
2022/09/06 00:23:51;;;;;;;6.88;4.97;;;21.20;91.10;;;;;;5000903;28;20056;-60
2022/09/06 00:26:17;;;;;;;6.22;4.85;;;21.20;91.40;;;;;;4994266;28;20046;-58
2022/09/06 00:28:43;;;;;;;6.40;5.07;;;21.10;91.10;;;;;;5005705;28;20039;-61
2022/09/06 00:31:14;;;;;;;5.75;5.15;;;21.10;91.10;;;;;;5018377;28;20397;-60
2022/09/06 00:33:40;;;;;;;8.52;4.88;;;21.00;91.10;;;;;;5018576;28;20041;-59
2022/09/06 00:36:07;;;;;;;7.47;4.55;;;21.00;91.20;;;;;;5014445;28;20121;-61
2022/09/06 00:38:32;;;;;;;6.38;4.85;;;21.00;91.20;;;;;;5014934;28;20049;-61
2022/09/06 00:40:58;;;;;;;7.65;5.10;;;21.00;91.20;;;;;;5011047;28;20029;-61
2022/09/06 00:43:24;;;;;;;8.40;5.35;;;21.00;91.20;;;;;;4989890;28;20034;-61
2022/09/06 00:45:50;;;;;;;9.30;5.22;;;20.90;91.30;;;;;;5010216;28;20049;-61
2022/09/06 00:48:16;;;;;;;6.35;5.30;;;20.90;91.40;;;;;;4999698;28;20045;-61
2022/09/06 00:50:44;;;;;;;9.38;5.18;;;20.90;91.60;;;;;;5007994;28;20094;-61
2022/09/06 00:53:10;;;;;;;7.93;5.60;;;20.80;91.70;;;;;;5013556;28;20041;-60
2022/09/06 00:55:36;;;;;;;6.13;5.30;;;20.80;91.80;;;;;;5013330;28;20029;-58
2022/09/06 00:58:02;;;;;;;7.95;5.30;;;20.80;91.80;;;;;;5000067;28;20042;-59
2022/09/06 01:00:28;;;;;;;5.68;4.88;;;20.70;91.90;;;;;;5015299;28;20042;-61
2022/09/06 01:02:54;;;;;;;8.50;5.32;;;20.70;91.90;;;;;;5018571;28;20064;-61
2022/09/06 01:05:24;;;;;;;8.55;5.10;;;20.80;91.90;;;;;;5012894;28;20038;-60
2022/09/06 01:08:06;;;;;;;7.45;5.15;;;20.70;91.80;;;;;;4995913;28;20393;-59
2022/09/06 01:10:50;;;;;;;7.50;4.45;;;20.30;91.70;;;;;;5011362;28;20048;-61
2022/09/06 01:13:39;;;;;;;8.20;5.50;;;20.70;91.80;;;;;;5019968;28;20405;-60
2022/09/06 01:16:04;;;;;;;6.70;5.15;;;20.70;91.70;;;;;;4998489;28;20049;-61
2022/09/06 01:18:36;;;;;;;7.80;5.50;;;20.60;91.70;;;;;;5021145;28;20026;-61
2022/09/06 01:21:11;;;;;;;7.50;4.97;;;20.60;91.70;;;;;;5015519;28;20420;-59
2022/09/06 01:23:59;;;;;;;7.00;5.65;;;20.70;91.70;;;;;;5012367;28;20125;-59
2022/09/06 01:27:02;;;;;;;8.40;5.80;;;20.60;91.70;;;;;;5019533;28;20059;-58
2022/09/06 01:29:46;;;;;;;6.30;5.70;;;20.60;91.70;;;;;;5015848;28;20103;-59
2022/09/06 01:32:35;;;;;;;8.73;6.45;;;20.50;91.70;;;;;;4996872;28;20080;-59
2022/09/06 01:35:26;;;;;;;9.80;5.50;;;20.50;91.80;;;;;;5014992;28;20040;-60
2022/09/06 01:37:52;;;;;;;8.70;6.38;;;20.40;91.90;;;;;;5018190;28;20049;-60
2022/09/06 01:40:18;;;;;;;9.50;5.60;;;20.40;91.90;;;;;;4985736;28;20559;-60
2022/09/06 01:42:47;;;;;;;6.13;5.53;;;20.30;92.00;;;;;;5010963;28;20129;-58
2022/09/06 01:45:42;;;;;;;6.50;5.80;;;20.30;92.00;;;;;;5014251;28;20048;-60
2022/09/06 01:48:10;;;;;;;13.13;6.28;;;20.30;92.10;;;;;;4943412;28;20541;-60
2022/09/06 01:50:36;;;;;;;7.28;5.72;;;20.30;92.10;;;;;;5017139;28;20073;-59
2022/09/06 01:53:26;;;;;;;8.52;5.72;;;20.30;92.20;;;;;;5022685;28;20080;-59
2022/09/06 01:56:03;;;;;;;7.80;5.22;;;20.30;92.20;;;;;;5003652;28;20236;-59
2022/09/06 01:58:55;;;;;;;12.73;6.95;;;20.20;92.20;;;;;;5018155;28;20128;-59
2022/09/06 02:01:56;;;;;;;8.70;5.95;;;20.20;92.30;;;;;;5025608;28;20041;-60
2022/09/06 02:04:42;;;;;;;6.97;5.85;;;20.20;92.30;;;;;;5001307;28;20042;-60
2022/09/06 02:07:29;;;;;;;9.82;5.30;;;20.10;92.30;;;;;;5013794;28;20033;-59
2022/09/06 02:10:11;;;;;;;6.38;5.60;;;20.20;92.30;;;;;;5021472;28;20039;-60
2022/09/06 02:12:40;;;;;;;6.97;4.57;;;20.10;92.30;;;;;;5018803;28;20052;-60
2022/09/06 02:15:12;;;;;;;8.23;6.35;;;20.10;92.30;;;;;;5018409;28;20037;-60
2022/09/06 02:17:49;;;;;;;8.95;5.70;;;20.10;92.30;;;;;;5006653;28;20037;-59
2022/09/06 02:20:24;;;;;;;5.68;4.82;;;20.10;92.30;;;;;;5005951;28;20046;-59
2022/09/06 02:22:55;;;;;;;7.93;5.82;;;20.10;92.30;;;;;;5015066;28;20481;-60
2022/09/06 02:25:26;;;;;;;10.68;5.93;;;20.10;92.30;;;;;;5006256;28;20045;-60
2022/09/06 02:27:53;;;;;;;6.97;5.18;;;20.10;92.20;;;;;;5013143;28;20045;-60
2022/09/06 02:30:19;;;;;;;6.60;4.95;;;20.10;92.20;;;;;;5009065;28;20279;-59
2022/09/06 02:32:54;;;;;;;8.95;5.40;;;20.10;92.30;;;;;;5014107;28;20429;-60
2022/09/06 02:35:20;;;;;;;10.93;5.13;;;20.00;92.30;;;;;;5010981;28;20228;-60
2022/09/06 02:37:45;;;;;;;9.77;5.53;;;20.00;92.20;;;;;;4988810;28;20577;-58
2022/09/06 02:40:11;;;;;;;7.68;5.68;;;20.00;92.20;;;;;;5006116;28;20484;-59
2022/09/06 02:42:39;;;;;;;7.07;5.03;;;20.00;92.20;;;;;;5013719;28;20408;-59
2022/09/06 02:45:05;;;;;;;8.13;5.03;;;20.00;92.20;;;;;;5009576;28;20049;-60
2022/09/06 02:47:30;;;;;;;7.18;5.70;;;20.00;92.20;;;;;;5013360;28;20084;-61
2022/09/06 02:49:56;;;;;;;6.68;4.82;;;20.00;92.20;;;;;;4994563;28;20112;-60
2022/09/06 02:52:22;;;;;;;7.53;5.88;;;19.90;92.20;;;;;;5010374;28;20049;-60
2022/09/06 02:54:48;;;;;;;6.70;5.70;;;20.00;92.20;;;;;;4973076;28;20045;-59
2022/09/06 02:57:13;;;;;;;7.10;5.65;;;19.90;92.30;;;;;;5016668;28;20045;-59
2022/09/06 02:59:39;;;;;;;7.97;6.10;;;19.90;92.30;;;;;;5013767;28;20044;-60
2022/09/06 03:02:05;;;;;;;6.70;6.00;;;19.90;92.30;;;;;;5016383;28;20045;-60
2022/09/06 03:04:31;;;;;;;7.35;5.05;;;19.80;92.30;;;;;;5009531;28;20029;-60
2022/09/06 03:06:57;;;;;;;5.95;5.07;;;19.80;92.40;;;;;;4992437;28;20045;-60
2022/09/06 03:09:23;;;;;;;7.22;6.00;;;19.70;92.50;;;;;;5006852;28;20030;-60
2022/09/06 03:11:49;;;;;;;7.18;5.80;;;19.70;92.60;;;;;;5012391;28;20047;-60
2022/09/06 03:14:15;;;;;;;8.63;5.50;;;19.70;92.60;;;;;;5009387;28;20683;-60
2022/09/06 03:16:42;;;;;;;8.48;5.63;;;19.70;92.70;;;;;;5017457;28;20036;-59
2022/09/06 03:19:07;;;;;;;6.65;5.13;;;19.70;92.70;;;;;;5003121;28;20057;-60
2022/09/06 03:21:33;;;;;;;7.47;5.60;;;19.60;92.70;;;;;;5017708;28;20045;-58
2022/09/06 03:23:59;;;;;;;9.68;7.07;;;19.60;92.80;;;;;;4997901;28;20041;-60
2022/09/06 03:26:24;;;;;;;7.82;5.78;;;19.60;92.80;;;;;;5016567;28;20033;-60
2022/09/06 03:28:50;;;;;;;7.82;5.47;;;19.60;92.80;;;;;;5014158;28;20045;-60
2022/09/06 03:31:16;;;;;;;7.50;5.78;;;19.60;92.80;;;;;;5012357;28;20041;-59
2022/09/06 03:33:42;;;;;;;6.07;5.45;;;19.60;92.90;;;;;;5010306;28;20102;-60
2022/09/06 03:36:07;;;;;;;6.53;5.75;;;19.60;92.80;;;;;;5053966;22;20049;-62
2022/09/06 03:38:33;;;;;;;5.85;5.25;;;19.60;92.80;;;;;;5028746;28;20399;-62
2022/09/06 03:40:59;;;;;;;7.07;6.03;;;19.60;92.90;;;;;;5009863;28;20059;-62
2022/09/06 03:43:26;;;;;;;8.82;5.90;;;19.60;92.80;;;;;;5017758;28;20044;-62
2022/09/06 03:45:54;;;;;;;6.97;6.10;;;19.60;92.90;;;;;;5033816;28;20060;-62
2022/09/06 03:48:22;;;;;;;7.30;6.47;;;19.50;92.90;;;;;;5024445;28;20123;-62
2022/09/06 03:50:53;;;;;;;7.43;5.72;;;19.50;92.90;;;;;;5038986;28;20041;-62
2022/09/06 03:53:19;;;;;;;7.68;5.60;;;19.50;92.90;;;;;;5035387;28;20083;-62
2022/09/06 03:55:47;;;;;;;6.82;6.13;;;19.50;92.90;;;;;;5042647;28;20029;-62
2022/09/06 03:58:13;;;;;;;7.70;6.05;;;19.50;93.00;;;;;;5037295;28;20504;-62
2022/09/06 04:00:39;;;;;;;8.80;7.05;;;19.40;93.10;;;;;;5034825;28;20032;-62
2022/09/06 04:03:05;;;;;;;9.20;6.05;;;19.40;93.10;;;;;;5041454;28;20040;-62
2022/09/06 04:05:31;;;;;;;7.00;6.35;;;19.40;93.40;;;;;;5042526;28;20144;-62
2022/09/06 04:07:56;;;;;;;7.43;6.07;;;19.40;93.10;;;;;;5041874;28;20098;-62
2022/09/06 04:10:22;;;;;;;5.25;4.75;;;19.40;93.20;;;;;;5043942;28;20048;-62
2022/09/06 04:12:48;;;;;;;7.30;6.00;;;19.40;93.20;;;;;;5040321;28;20068;-62
2022/09/06 04:15:13;;;;;;;6.85;5.93;;;19.40;93.20;;;;;;5027403;28;20106;-62
2022/09/06 04:17:44;;;;;;;8.70;6.50;;;19.50;93.30;;;;;;5044997;28;20555;-62
2022/09/06 04:20:10;;;;;;;8.35;6.47;;;19.50;93.30;;;;;;5043758;28;20049;-62
2022/09/06 04:22:36;;;;;;;7.47;6.40;;;19.50;93.40;;;;;;5027846;28;20043;-62
2022/09/06 04:25:03;;;;;;;7.88;6.22;;;19.50;93.60;;;;;;5036723;28;20036;-62
2022/09/06 04:27:28;;;;;;;9.00;6.40;;;19.50;93.70;;;;;;5037797;28;20043;-62
2022/09/06 04:29:55;;;;;;;9.95;6.80;;;19.50;94.00;;;;;;5009617;28;20045;-62
2022/09/06 04:32:21;;;;;;;9.38;7.07;;;19.50;94.30;;;;;;4992104;28;20579;-62
2022/09/06 04:34:47;;;;;;;6.93;6.03;;;19.50;94.50;;;;;;5013540;28;20121;-63
2022/09/06 04:37:16;;;;;;;8.00;6.95;;;19.50;94.70;;;;;;5030224;28;20025;-62
2022/09/06 04:39:43;;;;;;;13.82;8.88;;;19.40;95.00;;;;;;5006367;28;20412;-63
2022/09/06 04:42:09;;;;;;;10.80;8.85;;;19.30;95.30;;;;;;5020722;28;20144;-63
2022/09/06 04:44:34;;;;;;;9.77;8.18;;;19.20;95.50;;;;;;5030666;28;20639;-63
2022/09/06 04:47:13;;;;;;;10.85;8.60;;;19.20;95.90;;;;;;5033867;28;20124;-63
2022/09/06 04:49:39;;;;;;;10.82;8.57;;;19.20;96.20;;;;;;5013916;28;20037;-63
2022/09/06 04:52:05;;;;;;;11.25;9.02;;;19.10;96.30;;;;;;5008115;28;20531;-63
2022/09/06 04:54:31;;;;;;;10.85;6.85;;;19.10;96.60;;;;;;5038066;28;20037;-63
2022/09/06 04:56:57;;;;;;;14.80;10.05;;;19.00;96.70;;;;;;5033263;28;20037;-63
2022/09/06 04:59:23;;;;;;;11.20;9.65;;;19.00;97.00;;;;;;5031718;28;20389;-63
2022/09/06 05:01:48;;;;;;;13.15;10.25;;;18.90;97.10;;;;;;5010554;28;20672;-63
2022/09/06 05:04:14;;;;;;;10.93;8.90;;;18.90;97.40;;;;;;5034880;28;20045;-63
2022/09/06 05:06:40;;;;;;;11.20;9.85;;;18.80;97.60;;;;;;5023802;28;20045;-63
2022/09/06 05:09:06;;;;;;;11.95;8.48;;;18.80;97.80;;;;;;5025654;28;20057;-63
2022/09/06 05:11:33;;;;;;;11.43;8.70;;;18.80;98.00;;;;;;5042079;28;20090;-62
2022/09/06 05:13:58;;;;;;;11.98;10.32;;;18.80;98.10;;;;;;5017637;28;20029;-63
2022/09/06 05:16:24;;;;;;;9.15;8.25;;;18.90;98.30;;;;;;5034595;28;20083;-63
2022/09/06 05:18:50;;;;;;;11.88;10.70;;;18.70;98.40;;;;;;5014239;28;20044;-63
2022/09/06 05:21:16;;;;;;;10.07;9.18;;;18.60;98.40;;;;;;5029948;28;20037;-62
2022/09/06 05:23:41;;;;;;;12.85;9.02;;;18.60;98.60;;;;;;5029032;28;20041;-63
2022/09/06 05:26:07;;;;;;;11.70;9.10;;;18.50;98.80;;;;;;5012046;28;20674;-63
2022/09/06 05:28:33;;;;;;;12.32;8.80;;;18.40;98.90;;;;;;5030817;28;20060;-62
2022/09/06 05:31:10;;;;;;;10.80;9.80;;;18.40;99.20;;;;;;5027474;28;20036;-63
2022/09/06 05:33:37;;;;;;;16.33;9.52;;;18.50;99.40;;;;;;5026357;28;20044;-62
2022/09/06 05:36:04;;;;;;;10.80;9.70;;;18.50;99.60;;;;;;5021928;28;20133;-62
2022/09/06 05:38:30;;;;;;;13.00;9.48;;;18.50;99.60;;;;;;5022457;28;20491;-62
2022/09/06 05:40:56;;;;;;;10.30;9.20;;;18.40;99.80;;;;;;5030241;28;20059;-62
2022/09/06 05:43:21;;;;;;;11.18;8.73;;;18.40;99.90;;;;;;5029042;28;20048;-62
2022/09/06 05:45:47;;;;;;;11.23;9.55;;;18.40;99.90;;;;;;5034263;28;20438;-62
2022/09/06 05:48:13;;;;;;;10.43;9.27;;;18.40;99.90;;;;;;5036478;28;20372;-62
2022/09/06 05:50:39;;;;;;;9.70;8.68;;;18.40;99.90;;;;;;5016418;28;20057;-62
2022/09/06 05:53:04;;;;;;;11.25;10.15;;;18.40;99.90;;;;;;5042302;28;20045;-62
2022/09/06 05:55:30;;;;;;;6.95;6.25;;;18.30;99.90;;;;;;5041432;28;20037;-62
2022/09/06 05:57:55;;;;;;;12.50;11.20;;;18.40;99.90;;;;;;5045747;28;20483;-62
2022/09/06 06:00:21;;;;;;;11.43;10.23;;;18.40;99.90;;;;;;5043343;28;20059;-62
2022/09/06 06:02:48;;;;;;;13.02;10.90;;;18.50;99.90;;;;;;5043840;28;20099;-62
2022/09/06 06:05:14;;;;;;;12.20;9.50;;;18.50;99.90;;;;;;5040596;28;20043;-62
2022/09/06 06:07:40;;;;;;;12.20;10.20;;;18.50;99.90;;;;;;5039727;28;20088;-62
2022/09/06 06:10:06;;;;;;;12.63;10.30;;;18.50;99.90;;;;;;5044682;28;20194;-62
2022/09/06 06:12:32;;;;;;;9.15;8.25;;;18.50;99.90;;;;;;5042506;28;20295;-62
2022/09/06 06:14:58;;;;;;;11.00;9.63;;;18.40;99.90;;;;;;5037233;28;20056;-62
2022/09/06 06:17:24;;;;;;;10.07;8.98;;;18.40;99.90;;;;;;5024834;28;20116;-62
2022/09/06 06:19:49;;;;;;;10.10;8.65;;;18.40;99.90;;;;;;5045302;28;20295;-62
2022/09/06 06:22:15;;;;;;;13.00;10.55;;;18.50;99.90;;;;;;5023426;28;20167;-62
2022/09/06 06:24:41;;;;;;;10.38;9.43;;;18.40;99.90;;;;;;5044340;28;20028;-62
2022/09/06 06:27:06;;;;;;;11.63;10.52;;;18.40;99.90;;;;;;5045219;28;20041;-62
2022/09/06 06:29:32;;;;;;;10.43;9.30;;;18.40;99.90;;;;;;5042387;28;20051;-62
2022/09/06 06:31:58;;;;;;;9.93;8.93;;;18.50;99.90;;;;;;5033732;28;20496;-62
2022/09/06 06:34:23;;;;;;;8.30;7.47;;;18.50;99.90;;;;;;5021985;28;20110;-64
2022/09/06 06:36:49;;;;;;;15.15;10.88;;;18.50;99.90;;;;;;5033341;28;20045;-64
2022/09/06 06:39:15;;;;;;;10.30;9.32;;;18.60;99.90;;;;;;5045754;28;20061;-64
2022/09/06 06:41:40;;;;;;;9.48;8.57;;;18.60;99.90;;;;;;5032303;28;20044;-62
2022/09/06 06:44:06;;;;;;;13.05;11.23;;;18.60;99.90;;;;;;5046339;28;20049;-62
2022/09/06 06:46:35;;;;;;;10.23;9.23;;;18.60;99.90;;;;;;5052959;28;20128;-65
2022/09/06 06:49:02;;;;;;;12.40;10.95;;;18.60;99.90;;;;;;5052274;28;20094;-62
2022/09/06 06:51:30;;;;;;;10.70;9.70;;;18.60;99.90;;;;;;5052638;28;20037;-65
2022/09/06 06:53:56;;;;;;;7.80;7.10;;;18.60;99.90;;;;;;5034191;28;20120;-65
2022/09/06 06:56:33;;;;;;;9.77;8.55;;;18.60;99.90;;;;;;5034654;28;20136;-64
2022/09/06 06:59:01;;;;;;;11.25;9.52;;;18.70;99.90;;;;;;5052701;28;20124;-63
2022/09/06 07:01:29;;;;;;;10.60;9.38;;;18.70;99.90;;;;;;5052580;28;20044;-65
2022/09/06 07:03:57;;;;;;;15.07;11.50;;;18.80;99.90;;;;;;5034498;28;20052;-66
2022/09/06 07:06:23;;;;;;;12.15;10.23;;;19.00;99.90;;;;;;5043087;28;20400;-65
2022/09/06 07:08:49;;;;;;;11.35;10.20;;;19.20;99.90;;;;;;5032099;28;20038;-65
2022/09/06 07:11:17;;;;;;;12.27;11.07;;;19.30;99.90;;;;;;5038578;28;20049;-64
2022/09/06 07:13:43;;;;;;;11.48;10.23;;;19.40;99.90;;;;;;5034415;28;20090;-64
2022/09/06 07:16:19;;;;;;;11.50;9.80;;;19.50;99.90;;;;;;5052314;28;20037;-64
2022/09/06 07:18:46;;;;;;;11.95;10.25;;;19.60;99.90;;;;;;5034184;28;20033;-65
2022/09/06 07:21:14;;;;;;;12.02;10.77;;;19.70;99.90;;;;;;5034510;28;20041;-65
2022/09/06 07:23:40;;;;;;;11.43;10.20;;;19.80;99.90;;;;;;5034087;28;20098;-64
2022/09/06 07:26:06;;;;;;;11.30;10.23;;;19.90;99.90;;;;;;5052153;28;20041;-65
2022/09/06 07:28:32;;;;;;;13.65;12.25;;;19.90;99.90;;;;;;5052945;28;20228;-65
2022/09/06 07:30:59;;;;;;;11.98;10.77;;;20.00;99.90;;;;;;5051529;28;20033;-64
2022/09/06 07:33:26;;;;;;;12.25;10.73;;;20.00;99.80;;;;;;5038035;28;20079;-66
2022/09/06 07:36:00;;;;;;;13.27;10.70;;;20.00;99.70;;;;;;5049699;28;20112;-63
2022/09/06 07:38:28;;;;;;;14.43;11.05;;;20.00;99.70;;;;;;5046656;28;20038;-64
2022/09/06 07:41:05;;;;;;;13.02;11.73;;;20.10;99.70;;;;;;5032771;28;20041;-64
2022/09/06 07:43:32;;;;;;;12.65;11.38;;;20.30;99.90;;;;;;5017159;28;20049;-64
2022/09/06 07:46:15;;;;;;;12.38;11.10;;;20.50;99.40;;;;;;5031474;28;20041;-65
2022/09/06 07:48:43;;;;;;;11.05;10.00;;;20.60;99.10;;;;;;5042745;28;20132;-63
2022/09/06 07:51:17;;;;;;;12.45;11.15;;;20.60;99.00;;;;;;5045288;28;20499;-63
2022/09/06 07:53:49;;;;;;;12.15;10.73;;;20.60;98.70;;;;;;5040733;28;20381;-63
2022/09/06 07:56:16;;;;;;;11.10;10.10;;;20.50;98.50;;;;;;5036382;28;20407;-62
2022/09/06 07:58:41;;;;;;;11.52;10.32;;;20.40;98.60;;;;;;5017868;28;20045;-65
2022/09/06 08:01:29;;;;;;;11.02;10.02;;;20.40;98.70;;;;;;5033068;28;20128;-64
2022/09/06 08:04:06;;;;;;;12.10;10.90;;;20.30;98.80;;;;;;5030993;28;20053;-65
2022/09/06 08:06:34;;;;;;;11.82;10.70;;;20.40;99.00;;;;;;5045893;28;20407;-65
2022/09/06 08:09:01;;;;;;;12.38;11.18;;;20.60;99.00;;;;;;5028999;28;20034;-65
2022/09/06 08:11:32;;;;;;;20.77;11.77;;;20.90;99.10;;;;;;5024754;28;20045;-65
2022/09/06 08:13:59;;;;;;;12.73;11.52;;;21.10;98.90;;;;;;5044803;28;20056;-65
2022/09/06 08:16:27;;;;;;;12.43;11.27;;;21.30;98.70;;;;;;5007213;28;20044;-65
2022/09/06 08:18:54;;;;;;;12.57;10.27;;;21.40;98.10;;;;;;5041990;28;20048;-65
2022/09/06 08:21:25;;;;;;;12.90;11.57;;;21.50;98.00;;;;;;5025668;28;20043;-63
2022/09/06 08:24:02;;;;;;;12.48;11.23;;;21.70;98.00;;;;;;5044440;28;20044;-65
2022/09/06 08:26:30;;;;;;;12.73;11.18;;;21.80;98.00;;;;;;5030627;28;20111;-65
2022/09/06 08:28:59;;;;;;;12.02;10.82;;;21.90;97.80;;;;;;5031648;28;20036;-63
2022/09/06 08:31:29;;;;;;;13.43;11.98;;;21.90;97.40;;;;;;5051534;28;20045;-65
2022/09/06 08:33:56;;;;;;;12.23;11.05;;;21.80;97.10;;;;;;5047299;28;20068;-63
2022/09/06 08:36:22;;;;;;;12.80;11.55;;;21.70;97.00;;;;;;5044081;28;20033;-63
2022/09/06 08:38:48;;;;;;;13.80;10.52;;;21.70;97.30;;;;;;5050701;28;20076;-64
2022/09/06 08:41:13;;;;;;;12.63;11.43;;;21.70;97.50;;;;;;5046533;28;20060;-63
2022/09/06 08:43:53;;;;;;;13.05;10.88;;;21.90;97.20;;;;;;5033023;28;20496;-64
2022/09/06 08:46:22;;;;;;;12.73;11.52;;;22.10;97.10;;;;;;5021149;28;20123;-64
2022/09/06 08:48:48;;;;;;;13.10;11.73;;;22.20;97.10;;;;;;5023323;28;20039;-62
2022/09/06 08:51:55;;;;;;;12.93;11.57;;;22.40;96.90;;;;;;5042564;28;20033;-64
2022/09/06 08:54:45;;;;;;;12.02;10.77;;;22.50;96.60;;;;;;5014602;28;20056;-65
2022/09/06 08:57:32;;;;;;;13.82;11.80;;;22.70;96.60;;;;;;5043961;28;20116;-63
2022/09/06 09:00:02;;;;;;;15.57;11.85;;;22.80;96.30;;;;;;5051364;28;20563;-64
2022/09/06 09:02:44;;;;;;;12.02;10.80;;;23.00;96.10;;;;;;5051941;28;20123;-64
2022/09/06 09:05:22;;;;;;;12.23;11.10;;;23.10;96.00;;;;;;5046947;28;20175;-64
2022/09/06 09:08:12;;;;;;;13.63;10.48;;;23.10;95.90;;;;;;5039393;28;20076;-64
2022/09/06 09:10:52;;;;;;;14.30;11.02;;;23.10;95.80;;;;;;5041530;28;20033;-64
2022/09/06 09:13:32;;;;;;;12.65;10.13;;;23.00;95.80;;;;;;5050897;28;20116;-61
2022/09/06 09:15:58;;;;;;;11.35;10.27;;;23.10;95.90;;;;;;5028665;28;20041;-62
2022/09/06 09:18:31;;;;;;;12.13;10.82;;;23.30;96.00;;;;;;5030486;28;20454;-64
2022/09/06 09:20:58;;;;;;;10.70;9.68;;;23.40;95.30;;;;;;5055540;28;20116;-64
2022/09/06 09:23:24;;;;;;;13.32;10.93;;;23.50;94.90;;;;;;5035518;28;20124;-64
2022/09/06 09:25:51;;;;;;;11.35;10.02;;;23.50;94.90;;;;;;5048728;28;20116;-64
2022/09/06 09:28:21;;;;;;;12.40;10.48;;;23.60;94.60;;;;;;5047354;28;20120;-64
2022/09/06 09:30:53;;;;;;;12.88;9.65;;;23.70;94.70;;;;;;5037568;28;20063;-62
2022/09/06 09:33:34;;;;;;;11.77;9.35;;;23.80;94.20;;;;;;5031719;28;20048;-63
2022/09/06 09:36:11;;;;;;;10.75;9.68;;;24.00;94.40;;;;;;5059689;22;20035;-60
2022/09/06 09:38:43;;;;;;;11.43;9.68;;;24.10;93.80;;;;;;5020676;28;20049;-61
2022/09/06 09:41:22;;;;;;;12.35;9.88;;;24.20;94.10;;;;;;5033787;28;20135;-60
2022/09/06 09:44:26;;;;;;;10.88;9.60;;;24.40;93.80;;;;;;5022078;28;20064;-60
2022/09/06 09:46:52;;;;;;;10.25;9.15;;;24.50;93.70;;;;;;5023343;28;20052;-61
2022/09/06 09:49:21;;;;;;;10.13;9.13;;;24.50;93.20;;;;;;5021520;28;20041;-60
2022/09/06 09:52:04;;;;;;;10.77;9.77;;;24.50;92.60;;;;;;5041355;28;20497;-60
2022/09/06 09:54:34;;;;;;;11.90;10.77;;;24.50;92.60;;;;;;5066613;28;20383;-60
2022/09/06 09:56:59;;;;;;;11.52;10.45;;;24.60;92.60;;;;;;5050958;28;20044;-60
2022/09/06 09:59:28;;;;;;;12.68;9.70;;;24.60;92.70;;;;;;5068535;28;20048;-60
2022/09/06 10:02:14;;;;;;;10.30;9.40;;;24.70;92.60;;;;;;5064201;28;20037;-60
2022/09/06 10:04:50;;;;;;;11.65;10.52;;;24.80;92.60;;;;;;5053261;28;20548;-58
2022/09/06 10:07:23;;;;;;;12.45;11.15;;;24.90;92.10;;;;;;5060870;28;20036;-61
2022/09/06 10:10:03;;;;;;;;;;;24.90;92.10;;;;;;5067852;28;20045;-62
2022/09/06 10:12:37;;;;;;;11.68;10.05;;;25.00;92.60;;;;;;5045567;28;19924;-63
2022/09/06 10:15:05;;;;;;;11.20;9.43;;;25.20;92.40;;;;;;5045495;28;20048;-59
2022/09/06 10:17:46;;;;;;;12.40;10.45;;;25.40;92.50;;;;;;5062912;28;20530;-60
2022/09/06 10:20:11;;;;;;;11.38;10.32;;;25.50;92.20;;;;;;5063313;28;20045;-60
2022/09/06 10:23:00;;;;;;;10.05;9.13;;;25.60;91.70;;;;;;5056634;28;20102;-59
2022/09/06 10:25:46;;;;;;;13.90;9.27;;;25.70;91.70;;;;;;5032963;28;20550;-62
2022/09/06 10:28:42;;;;;;;9.18;8.25;;;25.80;90.90;;;;;;5058799;28;20381;-61
2022/09/06 10:31:40;;;;;;;10.82;8.55;;;25.90;91.10;;;;;;5051458;28;20088;-62
2022/09/06 10:34:25;;;;;;;15.63;8.38;;;25.90;90.90;;;;;;5052225;28;20147;-61
2022/09/06 10:37:19;;;;;;;10.52;7.88;;;26.00;90.90;;;;;;5032063;28;20049;-65
2022/09/06 10:39:52;;;;;;;7.65;6.80;;;26.20;90.90;;;;;;5027713;28;20044;-63
2022/09/06 10:42:20;;;;;;;8.13;7.03;;;26.30;90.50;;;;;;5016979;28;20142;-61
2022/09/06 10:45:24;;;;;;;7.85;6.93;;;26.40;90.40;;;;;;5040795;28;20494;-64
2022/09/06 10:48:03;;;;;;;9.23;5.90;;;26.50;88.60;;;;;;5041650;28;20044;-64
2022/09/06 10:50:41;;;;;;;11.15;6.05;;;26.40;89.90;;;;;;5030351;28;20926;-63
2022/09/06 10:53:16;;;;;;;7.00;5.63;;;26.50;89.30;;;;;;5040617;28;20507;-64
2022/09/06 10:55:44;;;;;;;6.68;5.60;;;26.70;87.50;;;;;;5051573;28;20033;-62
2022/09/06 10:58:11;;;;;;;7.78;5.90;;;26.80;88.10;;;;;;5026690;28;20067;-64
2022/09/06 11:00:48;;;;;;;6.50;5.90;;;26.80;88.00;;;;;;5029549;28;20462;-63
2022/09/06 11:03:41;;;;;;;7.20;6.47;;;26.70;86.70;;;;;;5043086;28;20267;-61
2022/09/06 11:06:09;;;;;;;6.35;5.80;;;26.50;86.90;;;;;;5040350;28;20483;-62
2022/09/06 11:09:07;;;;;;;5.97;4.95;;;26.50;88.40;;;;;;5029531;28;20040;-60
2022/09/06 11:11:47;;;;;;;7.68;5.90;;;26.70;89.60;;;;;;5041282;28;20051;-61
2022/09/06 11:14:14;;;;;;;7.03;6.35;;;26.90;87.70;;;;;;5045279;28;20459;-60
2022/09/06 11:16:56;;;;;;;6.97;6.28;;;27.10;86.70;;;;;;5045650;28;20049;-62
2022/09/06 11:19:31;;;;;;;6.85;5.55;;;27.10;85.60;;;;;;5043224;28;20040;-58
2022/09/06 11:22:03;;;;;;;7.40;6.05;;;27.30;86.40;;;;;;5025398;28;20060;-60
2022/09/06 11:24:35;;;;;;;7.00;6.20;;;27.40;86.50;;;;;;5019222;28;20048;-62
2022/09/06 11:27:32;;;;;;;6.63;6.03;;;27.50;86.70;;;;;;5029275;28;20193;-63
2022/09/06 11:30:00;;;;;;;7.07;6.38;;;27.80;86.10;;;;;;5040931;28;20130;-62
2022/09/06 11:32:29;;;;;;;7.05;5.30;;;27.70;84.40;;;;;;5045220;28;21931;-61
2022/09/06 11:34:57;;;;;;;7.10;5.70;;;27.60;84.70;;;;;;5048306;28;20813;-59
2022/09/06 11:37:29;;;;;;;6.95;5.60;;;27.80;84.40;;;;;;5043350;28;20052;-59
2022/09/06 11:40:12;;;;;;;6.30;4.78;;;27.80;82.80;;;;;;5054640;28;20037;-61
2022/09/06 11:42:44;;;;;;;5.90;3.90;;;27.80;83.60;;;;;;5048074;28;20048;-62
2022/09/06 11:45:09;;;;;;;6.15;3.88;;;28.00;82.60;;;;;;5054192;28;20056;-65
2022/09/06 11:47:46;;;;;;;7.15;3.80;;;28.10;82.00;;;;;;5041979;28;20036;-61
2022/09/06 11:50:21;;;;;;;21.65;12.32;;;28.30;81.70;;;;;;5047686;28;20033;-64
2022/09/06 11:53:05;;;;;;;49.03;18.40;;;28.40;81.20;;;;;;5014226;28;20135;-62
2022/09/06 11:55:42;;;;;;;4.50;4.00;;;28.40;80.60;;;;;;5061810;28;20033;-61
2022/09/06 11:58:16;;;;;;;4.60;3.90;;;28.50;80.40;;;;;;5061221;28;20489;-61
2022/09/06 12:00:43;;;;;;;6.40;4.20;;;28.50;80.40;;;;;;5046140;28;20099;-63
2022/09/06 12:03:29;;;;;;;4.32;3.90;;;28.40;80.90;;;;;;5057646;28;20425;-60
2022/09/06 12:06:20;;;;;;;4.75;3.20;;;28.30;80.80;;;;;;5061216;28;20482;-60
2022/09/06 12:08:48;;;;;;;5.55;3.90;;;28.40;79.40;;;;;;5066888;28;20511;-62
2022/09/06 12:11:35;;;;;;;7.07;4.00;;;28.50;80.30;;;;;;5035444;28;20045;-60
2022/09/06 12:14:05;;;;;;;5.05;3.72;;;28.70;79.00;;;;;;5058255;28;20124;-60
2022/09/06 12:16:56;;;;;;;5.32;3.42;;;28.80;79.80;;;;;;5065917;28;20398;-60
2022/09/06 12:19:44;;;;;;;5.90;3.58;;;28.70;79.10;;;;;;5056802;28;20127;-61
2022/09/06 12:22:28;;;;;;;5.65;3.78;;;28.70;79.00;;;;;;5048288;28;20040;-61
2022/09/06 12:24:59;;;;;;;4.97;3.30;;;28.70;78.80;;;;;;5040595;28;20491;-69
2022/09/06 12:27:33;;;;;;;5.45;3.00;;;28.60;78.30;;;;;;5044286;28;20085;-64
2022/09/06 12:30:11;;;;;;;3.63;2.42;;;28.80;77.60;;;;;;5026943;28;20048;-64
2022/09/06 12:32:41;;;;;;;6.68;3.00;;;29.00;75.40;;;;;;5044486;28;20101;-63
2022/09/06 12:35:36;;;;;;;5.00;2.42;;;29.20;76.60;;;;;;5036184;28;20048;-64
2022/09/06 12:38:09;;;;;;;4.72;2.58;;;29.30;75.10;;;;;;5016009;28;20051;-65
2022/09/06 12:40:44;;;;;;;6.60;3.10;;;29.50;75.80;;;;;;5049327;28;20037;-63
2022/09/06 12:43:14;;;;;;;5.90;2.90;;;29.50;76.00;;;;;;5041327;28;20056;-66
2022/09/06 12:45:49;;;;;;;4.28;2.70;;;29.30;74.70;;;;;;5044465;28;20069;-62
2022/09/06 12:48:30;;;;;;;4.68;2.78;;;29.20;75.90;;;;;;5014039;28;20045;-65
2022/09/06 12:51:04;;;;;;;5.05;2.78;;;29.30;75.90;;;;;;5054477;28;20916;-62
2022/09/06 12:53:30;;;;;;;3.83;2.85;;;29.50;75.30;;;;;;5056805;28;20045;-64
2022/09/06 12:56:06;;;;;;;3.22;2.90;;;29.80;75.00;;;;;;5046412;28;20033;-62
2022/09/06 12:58:33;;;;;;;3.63;2.95;;;29.90;75.00;;;;;;5045890;28;20367;-63
2022/09/06 13:01:28;;;;;;;4.28;3.00;;;30.00;74.30;;;;;;5040805;28;20055;-63
2022/09/06 13:04:09;;;;;;;5.50;2.65;;;30.30;74.10;;;;;;5040411;28;20051;-63